Terminal Aerodrome Forecast
Issued by NWS Corpus Christi, TX

Home | Current Version | Previous Version | Text Only | Print | Product List | Glossary On
Versions: 1 2 3 4 5 6 7 8 9 10 11 12 13 14 15 16 17 18
000
FTUS44 KCRP 201100
TAFCRP
TAF
KCRP 201137Z 2012/2112 11010KT P6SM SCT015 BKN025
     FM201500 15015G20KT P6SM OVC015
     FM201800 14018G25KT P6SM SCT030 BKN040
     FM210300 12015KT P6SM SCT020 BKN100
     FM210700 14005KT 5SM BR OVC015=

USA.gov is the U.S. government's official web portal to all federal, state and local government web resources and services.